createdAt,value
2018-09-13T04:06:25.849Z,9.50
2018-09-13T04:16:29.780Z,8.70
2018-09-13T04:26:34.541Z,9.50
2018-09-13T04:36:37.098Z,11.37
2018-09-13T04:46:39.846Z,10.23
2018-09-13T04:56:42.358Z,10.50
2018-09-13T05:06:45.019Z,12.63
2018-09-13T05:16:47.446Z,11.67
2018-09-13T05:26:50.132Z,13.33
2018-09-13T05:36:53.414Z,13.30
2018-09-13T05:46:55.957Z,14.40
2018-09-13T05:56:58.488Z,13.40
2018-09-13T06:07:01.002Z,13.60
2018-09-13T06:17:03.562Z,11.77
2018-09-13T06:27:06.134Z,12.20
2018-09-13T06:37:08.725Z,11.90
2018-09-13T06:47:11.233Z,10.40
2018-09-13T06:57:13.761Z,10.60
2018-09-13T07:07:17.411Z,11.30
2018-09-13T07:17:19.947Z,10.70
2018-09-13T07:27:22.498Z,11.50
2018-09-13T07:37:28.780Z,10.33
2018-09-13T07:47:31.285Z,12.43
2018-09-13T07:57:33.843Z,11.60
2018-09-13T08:07:36.612Z,12.60
2018-09-13T08:17:39.221Z,13.63
2018-09-13T08:27:41.779Z,13.60
2018-09-13T08:37:44.377Z,12.40
2018-09-13T08:47:50.194Z,12.27
2018-09-13T08:57:52.687Z,12.07
2018-09-13T09:07:55.293Z,10.50
2018-09-13T09:17:57.821Z,13.00
2018-09-13T09:28:00.341Z,11.47
2018-09-13T09:38:03.962Z,10.67
2018-09-13T09:48:06.522Z,10.67
2018-09-13T09:58:09.272Z,10.90
2018-09-13T10:08:13.115Z,11.43
2018-09-13T10:18:21.361Z,11.50
2018-09-13T10:28:29.956Z,12.47
2018-09-13T10:38:38.382Z,11.37
2018-09-13T10:48:46.480Z,11.30
2018-09-13T10:58:50.347Z,11.13
2018-09-13T11:08:53.213Z,11.60
2018-09-13T11:18:55.991Z,11.67
2018-09-13T11:28:58.789Z,12.00
2018-09-13T11:39:01.589Z,10.20
2018-09-13T11:49:04.255Z,14.13
2018-09-13T11:59:06.802Z,12.37
2018-09-13T12:09:13.118Z,12.10
2018-09-13T12:19:15.673Z,12.83
2018-09-13T12:29:18.274Z,12.20
2018-09-13T12:39:24.178Z,12.10
2018-09-13T12:49:26.811Z,12.30
2018-09-13T12:59:29.347Z,11.63
2018-09-13T13:09:33.224Z,10.40
2018-09-13T13:19:36.185Z,10.70
2018-09-13T13:29:39.859Z,11.30
2018-09-13T13:39:42.412Z,10.23
2018-09-13T13:49:45.961Z,9.17
2018-09-13T13:59:49.862Z,9.57
2018-09-13T14:09:52.524Z,10.20
2018-09-13T14:19:54.993Z,9.40
2018-09-13T14:29:57.600Z,8.30
2018-09-13T14:40:02.159Z,8.30
2018-09-13T14:50:05.178Z,9.90
2018-09-13T15:00:09.442Z,7.50
2018-09-13T15:10:12.817Z,8.57
2018-09-13T15:20:15.357Z,9.00
2018-09-13T15:30:18.426Z,7.73
2018-09-13T15:40:21.227Z,7.67
2018-09-13T15:50:24.859Z,7.53
2018-09-13T16:00:27.377Z,8.73
2018-09-13T16:10:29.902Z,7.80
2018-09-13T16:20:32.437Z,7.63
2018-09-13T16:30:35.022Z,8.80
2018-09-13T16:41:42.125Z,7.47
2018-09-13T16:51:44.778Z,7.20
2018-09-13T17:01:49.001Z,8.00
2018-09-13T17:11:51.540Z,7.93
2018-09-13T17:21:54.099Z,8.27
2018-09-13T17:31:56.659Z,7.70
2018-09-13T17:41:59.150Z,7.43
2018-09-13T17:52:01.722Z,9.17
2018-09-13T18:02:04.350Z,11.00
2018-09-13T18:12:07.023Z,21.70
2018-09-13T18:22:09.615Z,15.30
2018-09-13T18:32:12.260Z,16.13
2018-09-13T18:42:16.811Z,14.37
2018-09-13T18:52:19.335Z,16.60
2018-09-13T19:02:22.428Z,15.00
2018-09-13T19:12:24.982Z,14.53
2018-09-13T19:22:27.497Z,15.60
2018-09-13T19:32:30.051Z,16.30
2018-09-13T19:42:32.708Z,14.50
2018-09-13T19:52:35.345Z,14.70
2018-09-13T20:02:38.099Z,17.00
2018-09-13T20:12:40.758Z,17.60
2018-09-13T20:22:43.233Z,15.73
2018-09-13T20:32:45.753Z,17.10
2018-09-13T20:42:48.351Z,18.40
2018-09-13T20:52:50.896Z,16.43
2018-09-13T21:02:53.421Z,17.37
2018-09-13T21:12:55.962Z,17.13
2018-09-13T21:22:58.527Z,17.60
2018-09-13T21:33:01.134Z,18.90
2018-09-13T21:43:03.652Z,18.70
2018-09-13T21:53:06.184Z,18.57
2018-09-13T22:03:08.733Z,19.17
2018-09-13T22:13:11.335Z,19.40
2018-09-13T22:23:14.800Z,19.93
2018-09-13T22:33:17.276Z,21.23
2018-09-13T22:43:20.064Z,20.23
2018-09-13T22:53:22.563Z,22.33
2018-09-13T23:03:25.552Z,22.00
2018-09-13T23:13:28.009Z,22.57
2018-09-13T23:23:30.555Z,23.80
2018-09-13T23:33:33.097Z,24.23
2018-09-13T23:43:35.617Z,22.93
2018-09-13T23:53:38.254Z,22.60
